Detall de PIREP

Printer-friendly versionPDF version

[2014/11/21 16:29:00]
Flight IATA:CT2109
Pilot Number:044
Company ICAO:CAT
Aircraft Type:B463/A
PAX:89
Aircraft Registration:PAX
Departing Airport: LEMG
Destination Airport: LEVC
Alternate Airport:LEAL
Online: VATSIM
Route:VIBAS UM985 ASTRO
Flight Level:F260
No Slew and time accel
No pause
Crash detect
Detect pilot in Cockpit between each 30 and 45 minutes
16:29 Zero fuel Weight: 75440 Lbs, Fuel Weight: 9409 Lbs
16:29 VATSIM:LEMG 211600Z VRB01KT 9999 FEW080 18/15 Q1013 NOSIG
16:29 VATSIM:LEVC 211600Z VRB02KT 9999 FEW020 SCT025 18/15 Q1018 NOSIG
16:29 Parking Brakes off
16:37 Take-off
16:37 Take off Weight: 84389 Lbs
16:37 Wind: 186º @ 004 Knots Heading: 132º
16:37 POS N36º 40´ 29´´ W004º 29´ 56´´
16:37 Flaps:1 at 155 Knots
16:37 Gear Up: 156 Knots
16:37 Flaps:0 at 155 Knots
16:50 TOC
16:50 Fuel Weight: 7219 Lb
16:52 Wind:172º@036 Knots Heading: 056º Ground Speed: 415 Knots Altitude 26066 ft
17:07 Wind:120º@016 Knots Heading: 054º Ground Speed: 389 Knots Altitude 26128 ft
17:11 TOD
17:11 Fuel Weight: 5371 Lb
17:22 Wind:125º@007 Knots Heading: 326º Ground Speed: 262 Knots Altitude 5150 ft
17:28 Flaps:1 at 182 Knots
17:29 Gear Down: 142 Knots
17:29 Flaps:2 at 142 Knots
17:31 Flaps:3 at 136 Knots
17:32 TouchDown:Rate -483 ft/min Speed: 111 Knots
17:32 VATSIM:LEVC 211700Z VRB02KT 9999 FEW020 SCT025 18/15 Q1018 NOSIG
17:32 Land
17:32 Wind:118º@003 Knots
17:32 Heading: 117º
17:32 Flight Duration: 00:55
17:32 Landing Weight: 79948 Lbs
17:32 POS N39º 29´ 34´´ W000º 29´ 27´´
17:34 Parking brakes on
17:34 Block to Block Duration: 01:05
17:34 Final Fuel: 4444 Lbls
17:34 Spent Fuel: 4964 Lbls
17:34 Flight Length: 287 NM
17:34 TOD Land Length: 86 NM

Exportar CSV

Powered by Drupal - Modified by Danger4k